Time;durP1;ratioP1;P1;durP2;ratioP2;P2;SDS_P1;SDS_P2;PMS_P1;PMS_P2;Temp;Humidity;BMP_temperature;BMP_pressure;BME280_temperature;BME280_humidity;BME280_pressure;Samples;Min_cycle;Max_cycle;Signal;HPM_P1;HPM_P2
2022/06/14 00:01:07;;;;;;;12.40;6.10;;;22.60;68.30;;;;;;1818025;79;21052;-66
2022/06/14 00:03:39;;;;;;;11.83;5.78;;;22.60;68.40;;;;;;1817880;79;21020;-65
2022/06/14 00:06:10;;;;;;;16.80;8.33;;;22.60;68.60;;;;;;1817862;78;21125;-66
2022/06/14 00:08:40;;;;;;;16.10;7.10;;;22.60;68.40;;;;;;1817945;77;21102;-66
2022/06/14 00:11:18;;;;;;;17.20;8.50;;;22.50;68.30;;;;;;1817874;79;21025;-65
2022/06/14 00:13:48;;;;;;;22.37;8.60;;;22.50;68.50;;;;;;1817183;78;21087;-65
2022/06/14 00:16:18;;;;;;;14.30;9.20;;;22.50;68.60;;;;;;1817945;77;21040;-65
2022/06/14 00:18:48;;;;;;;28.07;11.05;;;22.50;68.50;;;;;;1817860;78;21115;-66
2022/06/14 00:21:19;;;;;;;19.27;9.55;;;22.40;68.60;;;;;;1817898;78;21114;-65
2022/06/14 00:23:48;;;;;;;17.50;8.03;;;22.40;68.80;;;;;;1817822;79;21047;-65
2022/06/14 00:26:17;;;;;;;12.03;7.47;;;22.30;68.90;;;;;;1817933;77;21462;-65
2022/06/14 00:28:48;;;;;;;10.38;6.42;;;22.30;69.00;;;;;;1817863;79;21091;-65
2022/06/14 00:31:22;;;;;;;14.75;6.37;;;22.30;69.20;;;;;;1817939;79;21044;-65
2022/06/14 00:33:52;;;;;;;18.17;7.92;;;22.30;69.60;;;;;;1818100;79;21534;-65
2022/06/14 00:36:30;;;;;;;14.38;6.80;;;22.30;69.70;;;;;;1817944;78;21089;-65
2022/06/14 00:39:02;;;;;;;12.85;8.05;;;22.30;69.90;;;;;;1818108;77;21122;-66
2022/06/14 00:41:49;;;;;;;15.40;7.70;;;22.20;70.00;;;;;;1818053;78;21044;-65
2022/06/14 00:44:21;;;;;;;17.45;7.95;;;22.20;70.30;;;;;;1817939;79;21126;-65
2022/06/14 00:46:53;;;;;;;13.18;7.17;;;22.20;70.20;;;;;;1818101;77;21072;-65
2022/06/14 00:49:25;;;;;;;14.87;7.15;;;22.20;70.00;;;;;;1818094;78;21088;-65
2022/06/14 00:51:57;;;;;;;18.15;6.53;;;22.20;69.90;;;;;;1817981;77;21044;-65
2022/06/14 00:54:30;;;;;;;14.33;7.42;;;22.20;70.30;;;;;;1817915;77;21557;-65
2022/06/14 00:57:08;;;;;;;13.10;7.20;;;22.10;70.30;;;;;;1818015;79;21101;-65
2022/06/14 00:59:49;;;;;;;16.95;7.37;;;22.10;70.40;;;;;;1818086;79;21486;-65
2022/06/14 01:02:27;;;;;;;15.63;7.20;;;22.10;70.60;;;;;;1818014;79;21044;-65
2022/06/14 01:04:58;;;;;;;37.03;8.40;;;22.10;70.10;;;;;;1818104;79;21123;-65
2022/06/14 01:07:33;;;;;;;15.32;7.97;;;22.00;70.40;;;;;;1818072;78;21564;-65
2022/06/14 01:10:08;;;;;;;12.82;8.05;;;22.00;70.60;;;;;;1817052;78;21064;-65
2022/06/14 01:12:39;;;;;;;12.88;7.05;;;22.00;70.50;;;;;;1817955;79;21576;-66
2022/06/14 01:15:20;;;;;;;11.78;7.53;;;21.90;70.50;;;;;;1816462;77;21532;-65
2022/06/14 01:17:58;;;;;;;18.30;7.97;;;21.80;70.80;;;;;;1818063;79;21098;-65
2022/06/14 01:20:28;;;;;;;10.50;6.00;;;21.70;71.10;;;;;;1818114;78;21035;-65
2022/06/14 01:22:57;;;;;;;12.13;7.90;;;21.70;71.20;;;;;;1817956;79;21048;-65
2022/06/14 01:25:29;;;;;;;18.32;7.20;;;21.70;71.30;;;;;;1818069;77;21044;-65
2022/06/14 01:28:00;;;;;;;11.48;6.53;;;21.70;71.40;;;;;;1817952;79;21093;-65
2022/06/14 01:30:32;;;;;;;14.78;7.33;;;21.60;71.60;;;;;;1817980;78;21024;-65
2022/06/14 01:33:09;;;;;;;15.20;8.33;;;21.70;71.90;;;;;;1818080;79;21118;-65
2022/06/14 01:35:41;;;;;;;17.92;9.38;;;21.70;71.90;;;;;;1817950;77;21108;-65
2022/06/14 01:38:13;;;;;;;13.35;7.83;;;21.70;71.90;;;;;;1817958;79;21081;-65
2022/06/14 01:40:50;;;;;;;13.62;8.15;;;21.70;72.00;;;;;;1818120;79;21411;-65
2022/06/14 01:43:47;;;;;;;20.37;8.10;;;21.60;72.00;;;;;;1816244;78;21044;-65
2022/06/14 01:46:31;;;;;;;19.20;7.42;;;21.60;72.10;;;;;;1817554;77;21106;-66
2022/06/14 01:51:50;;;;;;;22.52;9.00;;;21.50;71.80;;;;;;1818065;79;21056;-65
2022/06/14 01:51:51;;;;;;;15.08;7.22;;;21.40;71.50;;;;;;1815046;79;21118;-66
2022/06/14 01:54:41;;;;;;;10.58;6.53;;;21.30;71.80;;;;;;1817966;78;21064;-66
2022/06/14 01:57:22;;;;;;;9.83;5.62;;;21.10;72.30;;;;;;1818120;78;21504;-67
2022/06/14 02:00:03;;;;;;;13.88;6.20;;;21.00;72.60;;;;;;1817775;77;21099;-67
2022/06/14 02:04:37;;;;;;;11.28;5.92;;;21.10;72.90;;;;;;1798323;78;21055;-65
2022/06/14 02:05:28;;;;;;;12.93;6.00;;;21.20;72.90;;;;;;1814534;79;21039;-65
2022/06/14 02:08:02;;;;;;;12.68;5.80;;;21.30;72.70;;;;;;1817921;77;21111;-65
2022/06/14 02:10:55;;;;;;;12.07;5.05;;;21.40;72.50;;;;;;1817758;78;21507;-65
2022/06/14 02:13:51;;;;;;;11.73;5.05;;;21.50;72.00;;;;;;1856302;75;21137;-65
2022/06/14 02:16:32;;;;;;;12.50;5.90;;;21.50;71.80;;;;;;1856633;77;21039;-67
2022/06/14 02:19:13;;;;;;;13.35;5.80;;;21.50;71.90;;;;;;1856604;77;21011;-67
2022/06/14 02:21:45;;;;;;;12.35;5.58;;;21.50;71.90;;;;;;1856772;76;21086;-67
2022/06/14 02:24:20;;;;;;;12.80;6.12;;;21.50;71.60;;;;;;1856473;77;21478;-67
2022/06/14 02:26:53;;;;;;;;;;;21.50;71.60;;;;;;1859447;77;21116;-67
2022/06/14 02:29:27;;;;;;;10.45;5.90;;;21.50;71.40;;;;;;1856621;77;20166;-66
2022/06/14 02:32:05;;;;;;;18.55;6.45;;;21.50;71.30;;;;;;1846649;77;21067;-67
2022/06/14 02:34:40;;;;;;;17.42;5.53;;;21.50;71.50;;;;;;1856679;77;21047;-66
2022/06/14 02:37:13;;;;;;;;;;;21.50;71.50;;;;;;1859349;77;21043;-66
2022/06/14 02:39:54;;;;;;;13.25;5.65;;;21.60;71.30;;;;;;1856578;77;20095;-66
2022/06/14 02:42:41;;;;;;;11.20;6.30;;;21.60;71.30;;;;;;1856635;77;21478;-66
2022/06/14 02:45:15;;;;;;;18.65;6.37;;;21.70;71.50;;;;;;1844408;77;21109;-66
2022/06/14 02:48:02;;;;;;;;;;;21.80;71.40;;;;;;1856598;76;21058;-66
2022/06/14 02:50:43;;;;;;;17.60;6.70;;;21.90;71.30;;;;;;1856527;77;20095;-66
2022/06/14 02:53:18;;;;;;;11.68;5.72;;;22.10;70.90;;;;;;1856628;77;21132;-66
2022/06/14 02:55:56;;;;;;;17.55;8.08;;;22.20;70.80;;;;;;1856700;77;21042;-66
2022/06/14 02:58:31;;;;;;;18.40;8.30;;;22.30;70.60;;;;;;1840600;77;21038;-66
2022/06/14 03:01:03;;;;;;;19.42;6.28;;;22.40;70.40;;;;;;1856706;77;21039;-66
2022/06/14 03:03:47;;;;;;;8.65;5.75;;;22.50;70.30;;;;;;1856662;77;21174;-66
2022/06/14 03:06:22;;;;;;;16.65;6.65;;;22.50;70.30;;;;;;1856756;77;21038;-66
2022/06/14 03:09:04;;;;;;;;;;;22.50;70.00;;;;;;1859179;77;21497;-66
2022/06/14 03:11:42;;;;;;;17.77;5.65;;;22.60;69.90;;;;;;1855206;76;20103;-66
2022/06/14 03:14:23;;;;;;;12.58;6.28;;;22.70;69.70;;;;;;1847105;78;21066;-66
2022/06/14 03:17:12;;;;;;;17.77;5.90;;;22.80;69.50;;;;;;1844891;78;21507;-66
2022/06/14 03:19:44;;;;;;;13.75;5.35;;;22.80;69.30;;;;;;1847126;78;21039;-66
2022/06/14 03:22:22;;;;;;;16.77;7.37;;;22.80;68.90;;;;;;1846157;78;21023;-66
2022/06/14 03:24:57;;;;;;;14.87;6.78;;;22.90;68.80;;;;;;1847151;78;21149;-66
2022/06/14 03:27:29;;;;;;;18.12;6.85;;;22.90;68.90;;;;;;1836352;78;21043;-66
2022/06/14 03:30:14;;;;;;;12.20;6.55;;;23.00;69.00;;;;;;1847161;78;21067;-66
2022/06/14 03:33:04;;;;;;;18.25;6.70;;;23.10;69.00;;;;;;1847394;78;21113;-66
2022/06/14 03:35:42;;;;;;;14.70;7.05;;;23.10;68.70;;;;;;1847166;78;21019;-66
2022/06/14 03:38:35;;;;;;;10.80;6.22;;;23.20;68.70;;;;;;1847117;78;21555;-66
2022/06/14 03:41:05;;;;;;;10.63;5.08;;;23.30;68.60;;;;;;1847120;78;21054;-66
2022/06/14 03:43:37;;;;;;;14.93;5.00;;;23.40;68.30;;;;;;1847140;78;21114;-66
2022/06/14 03:46:14;;;;;;;12.03;6.55;;;23.40;68.30;;;;;;1847096;78;21067;-66
2022/06/14 03:48:47;;;;;;;12.05;5.80;;;23.50;68.20;;;;;;1847095;78;21177;-66
2022/06/14 03:51:37;;;;;;;13.03;5.87;;;23.60;67.90;;;;;;1847421;77;21039;-66
2022/06/14 03:54:36;;;;;;;11.55;6.80;;;23.70;67.80;;;;;;1844419;78;21035;-66
2022/06/14 03:57:32;;;;;;;17.55;6.60;;;23.70;67.30;;;;;;1847073;78;21470;-66
2022/06/14 04:00:04;;;;;;;14.23;5.90;;;23.80;67.10;;;;;;1847117;78;21118;-66
2022/06/14 04:03:00;;;;;;;12.23;6.17;;;23.90;67.10;;;;;;1846946;77;21085;-66
2022/06/14 04:05:52;;;;;;;14.53;6.17;;;23.80;66.40;;;;;;1847259;78;21039;-66
2022/06/14 04:08:34;;;;;;;8.73;5.83;;;23.80;66.20;;;;;;1847237;78;21063;-66
2022/06/14 04:11:14;;;;;;;6.50;4.65;;;23.80;66.10;;;;;;1847226;78;21027;-66
2022/06/14 04:13:46;;;;;;;8.98;5.35;;;23.70;66.20;;;;;;1835118;77;21081;-66
2022/06/14 04:16:21;;;;;;;9.33;5.10;;;23.70;66.60;;;;;;1871761;77;21108;-66
2022/06/14 04:19:03;;;;;;;8.23;4.45;;;23.70;66.40;;;;;;1871748;77;21559;-66
2022/06/14 04:21:41;;;;;;;43.38;10.60;;;23.70;66.60;;;;;;1871095;77;21065;-66
2022/06/14 04:24:17;;;;;;;9.45;4.22;;;23.60;66.40;;;;;;1871580;77;21010;-66
2022/06/14 04:26:49;;;;;;;9.53;4.53;;;23.50;66.20;;;;;;1870719;77;21113;-66
2022/06/14 04:29:40;;;;;;;7.97;4.17;;;23.40;66.30;;;;;;1871277;77;21085;-66
2022/06/14 04:32:21;;;;;;;13.38;4.40;;;23.40;66.70;;;;;;1871669;77;21060;-66
2022/06/14 04:34:55;;;;;;;11.15;4.08;;;23.50;66.80;;;;;;1871597;77;21022;-66
2022/06/14 04:37:25;;;;;;;;;;;23.60;67.00;;;;;;1873112;77;21101;-66
2022/06/14 04:40:00;;;;;;;9.20;4.60;;;23.70;66.80;;;;;;1871662;77;20146;-66
2022/06/14 04:42:32;;;;;;;21.60;5.45;;;23.70;66.50;;;;;;1871661;77;21062;-67
2022/06/14 04:45:22;;;;;;;17.55;5.35;;;23.70;66.30;;;;;;1871293;77;21085;-66
2022/06/14 04:47:54;;;;;;;10.50;4.53;;;23.70;66.40;;;;;;1871596;77;21437;-66
2022/06/14 04:50:28;;;;;;;11.70;4.30;;;23.80;66.10;;;;;;1871234;77;21062;-66
2022/06/14 04:53:00;;;;;;;;;;;23.80;66.00;;;;;;1874431;77;21066;-66
2022/06/14 04:55:35;;;;;;;14.70;5.12;;;23.90;66.20;;;;;;1871639;77;20106;-66
2022/06/14 04:58:19;;;;;;;8.40;4.58;;;23.90;66.00;;;;;;1871104;77;21477;-66
2022/06/14 05:00:51;;;;;;;10.15;4.53;;;24.00;65.40;;;;;;1871822;77;21042;-66
2022/06/14 05:03:23;;;;;;;8.90;5.30;;;23.90;65.20;;;;;;1871806;77;21030;-66
2022/06/14 05:05:55;;;;;;;7.28;4.47;;;24.00;65.30;;;;;;1871727;77;21464;-67
2022/06/14 05:08:33;;;;;;;9.65;4.33;;;24.10;65.20;;;;;;1871654;77;21492;-66
2022/06/14 05:11:15;;;;;;;7.40;3.15;;;24.10;64.70;;;;;;1870517;77;21062;-66
2022/06/14 05:13:59;;;;;;;5.08;3.95;;;24.10;64.40;;;;;;1856004;77;21129;-66
2022/06/14 05:16:34;;;;;;;8.15;6.05;;;24.10;64.30;;;;;;1847273;78;21051;-66
2022/06/14 05:19:15;;;;;;;5.87;4.83;;;24.10;64.00;;;;;;1846508;78;21043;-66
2022/06/14 05:21:53;;;;;;;4.80;3.12;;;24.10;64.00;;;;;;1847219;78;21102;-66
2022/06/14 05:24:24;;;;;;;5.85;3.27;;;24.20;63.90;;;;;;1847219;78;21035;-66
2022/06/14 05:27:08;;;;;;;11.55;3.45;;;24.10;63.60;;;;;;1847053;78;21043;-65
2022/06/14 05:29:40;;;;;;;8.87;3.43;;;24.10;63.70;;;;;;1847342;78;21051;-66
2022/06/14 05:32:30;;;;;;;7.12;3.65;;;24.00;63.80;;;;;;1847137;78;21494;-66
2022/06/14 05:35:20;;;;;;;8.98;4.28;;;24.00;64.20;;;;;;1868463;77;21138;-66
2022/06/14 05:38:10;;;;;;;10.58;3.52;;;23.90;64.40;;;;;;1868632;77;21048;-66
2022/06/14 05:41:02;;;;;;;6.58;3.52;;;23.80;64.50;;;;;;1868613;77;21103;-66
2022/06/14 05:43:37;;;;;;;9.70;4.20;;;23.90;64.60;;;;;;1863770;75;21124;-65
2022/06/14 05:46:25;;;;;;;14.07;4.12;;;24.00;64.60;;;;;;1867979;75;21048;-66
2022/06/14 05:48:57;;;;;;;8.33;3.65;;;24.00;65.20;;;;;;1868547;77;21036;-66
2022/06/14 05:51:29;;;;;;;6.25;3.33;;;24.00;65.00;;;;;;1868675;77;21459;-66
2022/06/14 05:54:10;;;;;;;5.40;3.83;;;24.00;65.20;;;;;;1868555;77;21024;-66
2022/06/14 05:56:42;;;;;;;9.18;4.00;;;24.00;65.30;;;;;;1868724;77;21471;-66
2022/06/14 05:59:32;;;;;;;11.20;3.70;;;24.10;65.00;;;;;;1868385;75;21088;-66
2022/06/14 06:02:20;;;;;;;9.23;3.45;;;24.20;64.90;;;;;;1868677;77;21033;-66
2022/06/14 06:05:12;;;;;;;18.10;4.75;;;24.20;64.80;;;;;;1868537;77;21072;-65
2022/06/14 06:07:44;;;;;;;8.80;2.83;;;24.30;64.20;;;;;;1868449;76;21036;-66
2022/06/14 06:10:19;;;;;;;7.67;3.17;;;24.40;64.30;;;;;;1868059;75;21507;-65
2022/06/14 06:12:54;;;;;;;12.85;3.40;;;24.40;63.30;;;;;;1868685;77;21115;-66
2022/06/14 06:15:44;;;;;;;8.10;3.55;;;24.40;63.30;;;;;;1868782;77;21056;-65
2022/06/14 06:18:40;;;;;;;6.50;4.78;;;24.50;63.00;;;;;;1868556;75;21495;-66
2022/06/14 06:21:24;;;;;;;9.73;2.87;;;24.50;63.00;;;;;;1866713;75;21051;-66
2022/06/14 06:24:05;;;;;;;3.43;2.33;;;24.60;62.60;;;;;;1867298;77;21094;-67
2022/06/14 06:26:37;;;;;;;5.90;2.55;;;24.60;62.40;;;;;;1865389;77;21017;-66
2022/06/14 06:29:11;;;;;;;4.05;2.55;;;24.60;61.70;;;;;;1866862;77;21048;-66
2022/06/14 06:31:43;;;;;;;5.80;2.87;;;24.70;62.00;;;;;;1865143;76;21150;-66
2022/06/14 06:34:15;;;;;;;7.03;4.50;;;24.80;61.70;;;;;;1866790;77;21033;-66
2022/06/14 06:36:46;;;;;;;4.15;2.52;;;24.90;61.60;;;;;;1866844;77;21169;-66
2022/06/14 06:39:35;;;;;;;6.95;2.95;;;25.00;61.20;;;;;;1866780;77;21029;-66
2022/06/14 06:42:19;;;;;;;31.07;3.58;;;25.00;61.00;;;;;;1866669;77;21048;-67
2022/06/14 06:44:57;;;;;;;7.60;3.17;;;25.10;61.00;;;;;;1866934;76;21037;-66
2022/06/14 06:47:32;;;;;;;5.70;3.00;;;25.20;60.80;;;;;;1866630;77;21017;-67
2022/06/14 06:50:26;;;;;;;4.10;3.00;;;25.30;60.20;;;;;;1866769;77;21111;-66
2022/06/14 06:53:18;;;;;;;8.88;2.83;;;25.40;60.10;;;;;;1866695;77;21161;-66
2022/06/14 06:55:59;;;;;;;6.17;3.58;;;25.50;60.20;;;;;;1866724;77;21114;-66
2022/06/14 06:58:33;;;;;;;4.67;4.08;;;25.60;60.30;;;;;;1866661;77;21024;-66
2022/06/14 07:01:12;;;;;;;6.83;4.33;;;25.70;59.90;;;;;;1866825;77;21056;-66
2022/06/14 07:03:44;;;;;;;5.10;3.60;;;25.80;59.30;;;;;;1866694;76;21060;-66
2022/06/14 07:06:19;;;;;;;11.12;4.60;;;25.80;59.20;;;;;;1866757;77;21556;-66
2022/06/14 07:09:03;;;;;;;7.65;3.00;;;25.80;59.70;;;;;;1866851;76;21131;-66
2022/06/14 07:11:38;;;;;;;4.10;2.77;;;25.90;59.10;;;;;;1866925;76;21058;-66
2022/06/14 07:14:13;;;;;;;6.80;2.80;;;26.00;58.70;;;;;;1866608;77;21056;-66
2022/06/14 07:16:45;;;;;;;8.90;3.17;;;26.00;58.70;;;;;;1866499;76;21490;-66
2022/06/14 07:19:20;;;;;;;6.33;3.20;;;26.10;59.10;;;;;;1863329;76;21036;-66
2022/06/14 07:21:58;;;;;;;4.15;2.95;;;26.20;59.00;;;;;;1864693;76;21159;-66
2022/06/14 07:24:34;;;;;;;4.87;2.87;;;26.30;58.00;;;;;;1864005;76;21064;-66
2022/06/14 07:27:12;;;;;;;5.78;2.65;;;26.40;57.60;;;;;;1864536;76;21448;-66
2022/06/14 07:29:44;;;;;;;5.95;3.35;;;26.40;57.40;;;;;;1864627;77;21017;-66
2022/06/14 07:32:25;;;;;;;7.10;3.67;;;26.40;57.50;;;;;;1864327;75;21061;-66
2022/06/14 07:34:55;;;;;;;4.83;2.70;;;26.50;57.50;;;;;;1862730;77;21448;-66
2022/06/14 07:37:30;;;;;;;4.50;2.80;;;26.70;57.30;;;;;;1864589;76;21040;-66
2022/06/14 07:40:02;;;;;;;8.85;3.42;;;26.80;57.20;;;;;;1864689;76;21134;-66
2022/06/14 07:42:52;;;;;;;6.22;3.22;;;26.90;57.10;;;;;;1864642;76;21538;-66
2022/06/14 07:45:24;;;;;;;5.90;2.85;;;26.90;56.80;;;;;;1862516;76;21082;-66
2022/06/14 07:48:00;;;;;;;7.45;2.72;;;27.00;57.30;;;;;;1864507;76;21012;-66
2022/06/14 07:50:31;;;;;;;7.30;3.12;;;27.00;56.70;;;;;;1864522;75;21049;-66
2022/06/14 07:53:18;;;;;;;4.90;2.72;;;27.00;56.90;;;;;;1864403;76;21487;-66
2022/06/14 07:56:02;;;;;;;4.30;2.85;;;27.00;56.60;;;;;;1864537;77;21098;-67
2022/06/14 07:58:40;;;;;;;3.37;2.72;;;27.10;56.50;;;;;;1864894;76;21061;-66
2022/06/14 08:01:12;;;;;;;5.22;2.95;;;27.20;56.30;;;;;;1864468;76;21122;-66
2022/06/14 08:04:01;;;;;;;5.22;3.35;;;27.20;56.40;;;;;;1800508;76;21065;-67
2022/06/14 08:06:43;;;;;;;5.28;4.15;;;27.20;55.80;;;;;;1864601;77;21057;-66
2022/06/14 08:09:17;;;;;;;4.62;3.47;;;27.30;55.90;;;;;;1864573;77;21061;-66
2022/06/14 08:11:53;;;;;;;;;;;27.40;56.10;;;;;;1867257;76;21040;-66
2022/06/14 08:14:28;;;;;;;6.53;3.30;;;27.50;55.90;;;;;;1864656;77;20106;-66
2022/06/14 08:16:58;;;;;;;3.45;3.02;;;27.60;55.70;;;;;;1864652;76;21041;-66
2022/06/14 08:19:42;;;;;;;11.88;3.83;;;27.60;55.30;;;;;;1864540;76;21033;-66
2022/06/14 08:22:12;;;;;;;3.17;2.80;;;27.60;55.50;;;;;;1862481;76;21072;-66
2022/06/14 08:24:44;;;;;;;4.70;3.27;;;27.70;55.40;;;;;;1863695;77;21130;-66
2022/06/14 08:27:22;;;;;;;9.55;5.42;;;27.80;55.30;;;;;;1862528;77;21064;-66
2022/06/14 08:29:57;;;;;;;5.58;3.80;;;27.80;55.60;;;;;;1863608;76;21119;-66
2022/06/14 08:32:29;;;;;;;4.17;3.22;;;27.90;55.50;;;;;;1863174;76;21169;-66
2022/06/14 08:35:01;;;;;;;6.30;2.95;;;27.80;55.30;;;;;;1863583;77;21083;-66
2022/06/14 08:37:39;;;;;;;6.10;3.40;;;27.80;55.10;;;;;;1863234;77;21152;-66
2022/06/14 08:40:15;;;;;;;4.65;3.72;;;27.70;55.30;;;;;;1863593;77;21052;-66
2022/06/14 08:42:53;;;;;;;7.35;3.65;;;27.70;55.50;;;;;;1918834;73;21271;-66
2022/06/14 08:45:40;;;;;;;7.70;3.22;;;27.70;55.40;;;;;;1922383;73;21028;-66
2022/06/14 08:48:20;;;;;;;5.58;2.85;;;27.80;55.30;;;;;;1922290;75;21512;-63
2022/06/14 08:50:55;;;;;;;6.12;3.47;;;27.80;55.50;;;;;;1920793;74;21078;-65
2022/06/14 08:53:29;;;;;;;5.70;2.90;;;27.90;55.30;;;;;;1921970;74;21041;-65
2022/06/14 08:56:04;;;;;;;5.20;3.22;;;27.90;54.90;;;;;;1921775;75;21082;-66
2022/06/14 08:58:45;;;;;;;5.50;3.42;;;27.90;55.00;;;;;;1921633;73;21093;-66
2022/06/14 09:01:32;;;;;;;5.78;3.70;;;27.90;54.90;;;;;;1921892;74;21023;-63
2022/06/14 09:04:32;;;;;;;6.90;3.52;;;27.90;54.70;;;;;;1921889;75;21012;-61
2022/06/14 09:07:11;;;;;;;9.35;3.75;;;28.00;55.30;;;;;;1866082;74;21149;-62
2022/06/14 09:09:51;;;;;;;6.37;3.52;;;28.10;54.10;;;;;;1921120;74;20995;-65
2022/06/14 09:12:29;;;;;;;4.60;3.10;;;28.20;54.20;;;;;;1921491;75;21500;-64
2022/06/14 09:15:05;;;;;;;3.58;3.27;;;28.40;54.10;;;;;;1921906;75;21493;-65
2022/06/14 09:17:47;;;;;;;5.12;3.20;;;28.50;53.30;;;;;;1921355;74;21148;-63
2022/06/14 09:20:18;;;;;;;5.67;3.62;;;28.70;52.50;;;;;;1919331;74;21582;-59
2022/06/14 09:23:08;;;;;;;6.20;3.80;;;28.50;52.10;;;;;;1919347;74;21073;-62
2022/06/14 09:25:46;;;;;;;5.25;3.50;;;28.40;52.20;;;;;;1919704;74;21147;-60
2022/06/14 09:28:35;;;;;;;5.75;3.62;;;28.40;52.10;;;;;;1920009;75;21026;-67
2022/06/14 09:31:16;;;;;;;5.25;3.87;;;28.60;52.50;;;;;;1918601;74;21127;-62
2022/06/14 09:34:16;;;;;;;9.18;4.17;;;28.70;52.80;;;;;;1918837;74;21076;-75
2022/06/14 09:37:05;;;;;;;4.87;3.52;;;28.80;53.70;;;;;;1920153;74;21105;-73
2022/06/14 09:39:49;;;;;;;4.20;3.37;;;29.00;52.40;;;;;;1920255;74;21030;-62
2022/06/14 09:42:34;;;;;;;4.75;3.35;;;29.00;51.40;;;;;;1925850;74;21116;-65
2022/06/14 09:45:29;;;;;;;5.40;4.62;;;29.10;51.20;;;;;;1933337;74;21081;-63
2022/06/14 09:48:28;;;;;;;7.25;3.30;;;29.10;51.50;;;;;;1933064;74;21049;-65
2022/06/14 09:54:26;;;;;;;4.58;3.60;;;29.10;51.50;;;;;;1891509;73;21105;-61
2022/06/14 09:57:14;;;;;;;6.28;3.77;;;29.10;51.50;;;;;;1890052;76;21158;-60
2022/06/14 10:00:01;;;;;;;5.95;4.00;;;29.10;51.30;;;;;;1891061;76;21018;-63
2022/06/14 10:02:40;;;;;;;3.87;3.52;;;29.20;51.20;;;;;;1889572;76;21126;-64
2022/06/14 10:05:15;;;;;;;5.37;3.80;;;29.30;50.80;;;;;;1890926;76;21053;-65
2022/06/14 10:08:03;;;;;;;12.43;3.92;;;29.40;51.20;;;;;;1890831;75;22120;-63
2022/06/14 10:10:35;;;;;;;5.00;3.37;;;29.50;51.00;;;;;;1891061;75;21083;-60
2022/06/14 10:13:35;;;;;;;4.80;3.60;;;29.50;51.10;;;;;;1890938;76;21045;-70
2022/06/14 10:16:38;;;;;;;7.72;3.80;;;29.60;50.50;;;;;;1890960;76;21050;-68
2022/06/14 10:19:29;;;;;;;7.90;3.67;;;29.70;50.40;;;;;;1889481;76;21097;-64
2022/06/14 10:22:01;;;;;;;5.58;3.45;;;29.80;50.40;;;;;;1890975;76;21515;-65
2022/06/14 10:24:35;;;;;;;6.58;3.80;;;29.90;50.00;;;;;;1889436;76;21612;-62
2022/06/14 10:30:00;;;;;;;5.00;2.92;;;29.80;49.90;;;;;;1890991;76;21116;-63
2022/06/14 10:32:32;;;;;;;7.10;3.70;;;29.70;50.20;;;;;;1891062;75;21448;-64
2022/06/14 10:35:16;;;;;;;7.45;3.62;;;29.40;50.60;;;;;;1884564;76;21589;-64
2022/06/14 10:37:56;;;;;;;9.63;4.07;;;29.20;50.90;;;;;;1890600;76;21096;-65
2022/06/14 10:40:54;;;;;;;6.53;4.03;;;29.00;51.40;;;;;;1890951;76;21729;-65
2022/06/14 10:43:32;;;;;;;5.08;3.52;;;28.90;52.30;;;;;;1890883;76;21104;-64
2022/06/14 10:46:04;;;;;;;5.03;3.45;;;28.70;52.60;;;;;;1890505;76;21538;-63
2022/06/14 10:48:52;;;;;;;4.45;3.20;;;28.50;52.90;;;;;;1877488;75;20993;-62
2022/06/14 10:51:37;;;;;;;5.90;3.55;;;28.30;53.50;;;;;;1890850;76;21214;-61
2022/06/14 10:54:09;;;;;;;6.05;3.83;;;28.20;54.00;;;;;;1885519;75;21496;-63
2022/06/14 10:57:04;;;;;;;4.78;3.83;;;28.10;54.40;;;;;;1882012;75;21112;-62
2022/06/14 11:00:09;;;;;;;11.53;3.77;;;28.00;54.50;;;;;;1882330;76;21073;-65
2022/06/14 11:02:58;;;;;;;6.12;3.50;;;27.90;54.40;;;;;;1882092;76;21182;-63
2022/06/14 11:06:02;;;;;;;13.00;6.25;;;27.90;54.60;;;;;;1882217;75;21076;-65
2022/06/14 11:08:37;;;;;;;8.28;3.47;;;28.00;54.90;;;;;;1882280;76;21127;-67
2022/06/14 11:11:25;;;;;;;8.45;6.00;;;28.00;56.90;;;;;;1882093;75;21021;-63
2022/06/14 11:14:09;;;;;;;4.50;2.98;;;28.00;57.40;;;;;;1882383;76;21069;-61
2022/06/14 11:17:01;;;;;;;5.92;3.20;;;28.00;57.60;;;;;;1856393;75;21149;-61
2022/06/14 11:19:54;;;;;;;6.80;3.52;;;27.90;57.30;;;;;;1848957;77;21082;-64
2022/06/14 11:22:36;;;;;;;3.42;3.02;;;28.00;57.00;;;;;;1760348;81;21148;-63
2022/06/14 11:25:19;;;;;;;7.90;2.27;;;28.20;55.80;;;;;;1737469;82;21625;-64
2022/06/14 11:28:15;;;;;;;4.95;2.33;;;28.40;53.20;;;;;;1771825;79;21093;-65
2022/06/14 11:31:21;;;;;;;3.58;2.25;;;28.50;52.90;;;;;;1866814;76;21080;-64
2022/06/14 11:34:22;;;;;;;3.00;2.20;;;28.60;53.00;;;;;;1826028;78;21064;-65
2022/06/14 11:37:03;;;;;;;4.03;3.60;;;28.80;52.20;;;;;;1826220;78;21182;-66
2022/06/14 11:39:35;;;;;;;6.15;3.70;;;29.00;51.70;;;;;;1866233;77;21535;-66
2022/06/14 11:42:07;;;;;;;5.45;4.17;;;29.00;52.30;;;;;;1826142;78;21032;-65
2022/06/14 11:44:45;;;;;;;5.90;3.85;;;28.90;53.00;;;;;;1866837;77;21138;-62
2022/06/14 11:47:35;;;;;;;9.73;4.47;;;28.80;53.40;;;;;;1866223;76;21037;-70
2022/06/14 11:50:22;;;;;;;5.05;3.87;;;28.70;53.90;;;;;;1866078;75;21099;-66
2022/06/14 11:53:09;;;;;;;7.03;4.28;;;28.70;54.40;;;;;;1818868;78;21547;-60
2022/06/14 11:55:41;;;;;;;8.40;4.28;;;28.60;54.50;;;;;;1859632;77;21030;-62
2022/06/14 11:58:12;;;;;;;6.00;3.87;;;28.60;54.80;;;;;;1860576;77;21091;-62
2022/06/14 12:00:50;;;;;;;6.08;3.85;;;28.60;55.10;;;;;;1860262;76;21628;-62
2022/06/14 12:03:45;;;;;;;8.38;4.50;;;28.60;55.30;;;;;;1860369;76;21070;-63
2022/06/14 12:06:42;;;;;;;4.78;3.85;;;28.70;55.50;;;;;;1860406;77;21121;-64
2022/06/14 12:09:31;;;;;;;7.90;3.40;;;28.80;55.50;;;;;;1860027;77;21402;-64
2022/06/14 12:12:15;;;;;;;5.20;3.20;;;29.00;54.70;;;;;;1860342;77;21147;-62
2022/06/14 12:15:01;;;;;;;10.03;3.62;;;29.20;54.90;;;;;;1860952;75;21053;-64
2022/06/14 12:17:41;;;;;;;7.33;4.00;;;29.40;54.30;;;;;;1860836;77;21173;-64
2022/06/14 12:20:12;;;;;;;19.65;4.15;;;29.50;53.10;;;;;;1860698;77;21534;-63
2022/06/14 12:22:44;;;;;;;5.83;3.08;;;29.50;52.60;;;;;;1860893;77;21535;-63
2022/06/14 12:28:23;;;;;;;4.83;3.15;;;29.40;52.00;;;;;;1861008;76;21053;-63
2022/06/14 12:30:55;;;;;;;3.67;3.10;;;29.40;52.10;;;;;;1859704;77;21037;-64
2022/06/14 12:33:30;;;;;;;6.83;3.30;;;29.40;51.80;;;;;;1861020;75;21049;-64
2022/06/14 12:36:28;;;;;;;5.47;2.62;;;29.40;51.90;;;;;;1861157;77;21026;-65
2022/06/14 12:39:00;;;;;;;3.55;3.17;;;29.40;52.10;;;;;;1861197;77;21131;-65
2022/06/14 12:41:33;;;;;;;5.03;2.85;;;29.50;52.30;;;;;;1861211;77;21037;-64
2022/06/14 12:44:23;;;;;;;5.28;2.98;;;29.60;52.60;;;;;;1861220;76;21049;-65
2022/06/14 12:46:55;;;;;;;4.80;3.00;;;29.60;52.40;;;;;;1860313;76;21133;-65
2022/06/14 12:49:27;;;;;;;6.58;3.50;;;29.70;52.90;;;;;;1861125;76;21111;-65
2022/06/14 12:51:58;;;;;;;4.00;3.22;;;29.70;53.40;;;;;;1861100;77;21111;-65
2022/06/14 12:54:51;;;;;;;5.65;3.17;;;29.70;53.40;;;;;;1854625;77;21077;-65
2022/06/14 12:57:42;;;;;;;7.33;3.20;;;29.60;53.00;;;;;;1849643;77;21205;-65
2022/06/14 13:00:47;;;;;;;10.65;6.35;;;29.60;53.30;;;;;;1848388;77;21105;-65
2022/06/14 13:03:36;;;;;;;5.45;3.02;;;29.50;53.40;;;;;;1849499;77;21062;-66
2022/06/14 13:06:30;;;;;;;5.67;3.52;;;29.30;53.40;;;;;;1849342;77;21183;-66
2022/06/14 13:09:02;;;;;;;7.80;3.15;;;29.20;53.20;;;;;;1812726;77;21042;-66
2022/06/14 13:11:59;;;;;;;4.83;3.50;;;29.00;53.40;;;;;;1848513;77;21103;-66
2022/06/14 13:14:34;;;;;;;3.08;2.77;;;28.90;53.60;;;;;;1849343;77;21131;-66
2022/06/14 13:17:18;;;;;;;5.55;3.27;;;28.70;53.80;;;;;;1849087;75;21472;-65
2022/06/14 13:20:08;;;;;;;3.23;2.93;;;28.70;54.20;;;;;;1846355;75;21493;-64
2022/06/14 13:22:52;;;;;;;4.55;2.98;;;28.60;54.30;;;;;;1847897;77;21112;-64
2022/06/14 13:25:24;;;;;;;6.78;2.58;;;28.60;54.50;;;;;;1849165;77;21097;-63
2022/06/14 13:28:08;;;;;;;3.35;2.52;;;28.60;55.40;;;;;;1849571;77;21120;-65
2022/06/14 13:30:52;;;;;;;4.17;2.30;;;28.60;56.00;;;;;;1849514;77;21509;-65
2022/06/14 13:33:48;;;;;;;4.43;2.80;;;28.60;56.40;;;;;;1849835;77;21050;-65
2022/06/14 13:36:41;;;;;;;5.28;2.60;;;28.70;56.60;;;;;;1849369;77;21100;-64
2022/06/14 13:39:31;;;;;;;2.65;2.15;;;28.80;56.70;;;;;;1786683;80;21069;-64
2022/06/14 13:42:03;;;;;;;5.70;2.90;;;28.90;56.00;;;;;;1786771;79;21061;-63
2022/06/14 13:44:47;;;;;;;3.83;2.40;;;29.00;55.60;;;;;;1820349;77;21472;-63
2022/06/14 13:47:40;;;;;;;2.47;2.27;;;29.00;55.40;;;;;;1849512;77;21033;-63
2022/06/14 13:50:21;;;;;;;6.53;3.00;;;29.00;54.10;;;;;;1769554;77;21540;-63
2022/06/14 13:53:08;;;;;;;3.02;2.35;;;29.10;53.50;;;;;;1849361;77;21038;-65
2022/06/14 13:55:52;;;;;;;10.32;2.80;;;29.20;52.90;;;;;;1849323;76;21148;-65
2022/06/14 13:58:43;;;;;;;7.58;3.65;;;29.30;52.40;;;;;;1849567;77;21101;-65
2022/06/14 14:01:38;;;;;;;8.70;2.85;;;29.40;52.20;;;;;;1848872;77;21034;-65